createdAt,value
2019-03-17T00:02:21.582Z,2.52
2019-03-17T00:04:58.743Z,2.60
2019-03-17T00:07:36.153Z,2.50
2019-03-17T00:10:13.509Z,3.15
2019-03-17T00:12:50.598Z,3.10
2019-03-17T00:15:27.758Z,2.52
2019-03-17T00:18:02.298Z,2.50
2019-03-17T00:20:39.441Z,2.40
2019-03-17T00:23:16.648Z,2.30
2019-03-17T00:25:51.185Z,2.42
2019-03-17T00:28:28.263Z,2.72
2019-03-17T00:31:05.390Z,2.83
2019-03-17T00:33:42.436Z,2.85
2019-03-17T00:36:20.052Z,2.50
2019-03-17T00:38:57.145Z,2.58
2019-03-17T00:41:34.351Z,2.72
2019-03-17T00:44:14.307Z,2.52
2019-03-17T00:46:51.500Z,2.62
2019-03-17T00:49:28.652Z,2.30
2019-03-17T00:52:03.306Z,2.80
2019-03-17T00:54:40.424Z,3.00
2019-03-17T00:57:17.520Z,2.65
2019-03-17T00:59:52.162Z,2.50
2019-03-17T01:02:26.911Z,2.42
2019-03-17T01:05:04.206Z,2.05
2019-03-17T01:07:38.820Z,2.50
2019-03-17T01:10:16.087Z,2.87
2019-03-17T01:12:53.350Z,2.70
2019-03-17T01:15:32.224Z,2.55
2019-03-17T01:18:06.251Z,2.45
2019-03-17T01:20:43.838Z,2.65
2019-03-17T01:23:21.442Z,2.47
2019-03-17T01:25:56.168Z,2.75
2019-03-17T01:28:33.368Z,2.70
2019-03-17T01:31:08.326Z,2.50
2019-03-17T01:33:45.506Z,2.60
2019-03-17T01:36:22.784Z,2.25
2019-03-17T01:38:57.551Z,2.58
2019-03-17T01:41:34.911Z,2.58
2019-03-17T01:44:10.983Z,2.17
2019-03-17T01:46:45.713Z,2.50
2019-03-17T01:49:22.900Z,2.45
2019-03-17T01:51:59.995Z,2.45
2019-03-17T01:54:37.282Z,2.60
2019-03-17T01:57:14.419Z,2.62
2019-03-17T01:59:49.142Z,2.77
2019-03-17T02:02:24.157Z,2.80
2019-03-17T02:05:01.359Z,2.45
2019-03-17T02:07:38.588Z,2.47
2019-03-17T02:10:16.126Z,2.42
2019-03-17T02:12:50.927Z,2.35
2019-03-17T02:15:29.471Z,2.45
2019-03-17T02:18:06.544Z,2.30
2019-03-17T02:20:45.160Z,3.02
2019-03-17T02:23:22.395Z,2.95
2019-03-17T02:25:57.448Z,2.60
2019-03-17T02:28:34.636Z,2.95
2019-03-17T02:31:11.857Z,2.90
2019-03-17T02:33:49.053Z,3.40
2019-03-17T02:36:26.112Z,3.20
2019-03-17T02:39:00.861Z,2.92
2019-03-17T02:41:35.520Z,2.65
2019-03-17T02:44:12.673Z,3.27
2019-03-17T02:46:50.063Z,3.35
2019-03-17T02:49:27.264Z,3.52
2019-03-17T02:52:06.585Z,3.30
2019-03-17T02:54:41.120Z,3.15
2019-03-17T02:57:18.449Z,3.10
2019-03-17T02:59:55.560Z,3.30
2019-03-17T03:02:30.221Z,3.10
2019-03-17T03:05:07.259Z,2.75
2019-03-17T03:07:44.338Z,2.80
2019-03-17T03:10:18.919Z,2.77
2019-03-17T03:12:56.103Z,2.47
2019-03-17T03:15:33.245Z,2.77
2019-03-17T03:18:07.930Z,2.50
2019-03-17T03:20:45.284Z,2.22
2019-03-17T03:23:22.444Z,2.27
2019-03-17T03:25:57.091Z,2.35
2019-03-17T03:28:34.377Z,2.08
2019-03-17T03:31:11.746Z,2.10
2019-03-17T03:33:49.215Z,2.10
2019-03-17T03:36:26.718Z,1.65
2019-03-17T03:39:03.870Z,1.75
2019-03-17T03:41:41.230Z,1.77
2019-03-17T03:44:18.500Z,1.75
2019-03-17T03:46:56.891Z,1.70
2019-03-17T03:49:34.058Z,1.80
2019-03-17T03:52:08.947Z,1.90
2019-03-17T03:54:46.096Z,1.87
2019-03-17T03:57:23.146Z,1.87
2019-03-17T04:00:00.453Z,1.62
2019-03-17T04:02:35.248Z,1.50
2019-03-17T04:05:12.756Z,1.60
2019-03-17T04:07:50.156Z,1.60
2019-03-17T04:10:24.956Z,1.42
2019-03-17T04:13:02.410Z,1.50
2019-03-17T04:15:48.795Z,1.32
2019-03-17T04:18:26.002Z,1.27
2019-03-17T04:21:03.101Z,1.10
2019-03-17T04:23:40.428Z,1.10
2019-03-17T04:26:17.846Z,1.02
2019-03-17T04:28:55.232Z,0.90
2019-03-17T04:31:32.625Z,0.80
2019-03-17T04:34:09.799Z,0.70
2019-03-17T04:36:47.630Z,1.15
2019-03-17T04:39:24.710Z,0.75
2019-03-17T04:41:59.929Z,0.90
2019-03-17T04:44:37.197Z,0.90
2019-03-17T04:47:14.408Z,0.72
2019-03-17T04:49:51.625Z,0.78
2019-03-17T04:52:28.001Z,0.80
2019-03-17T04:55:04.558Z,1.00
2019-03-17T04:57:41.601Z,1.00
2019-03-17T05:00:19.376Z,0.80
2019-03-17T05:02:56.793Z,1.10
2019-03-17T05:05:33.994Z,0.80
2019-03-17T05:08:11.207Z,0.90
2019-03-17T05:10:48.519Z,0.75
2019-03-17T05:13:26.766Z,0.80
2019-03-17T05:16:04.065Z,0.72
2019-03-17T05:18:41.463Z,0.78
2019-03-17T05:21:18.665Z,0.68
2019-03-17T05:23:55.858Z,0.80
2019-03-17T05:26:30.554Z,0.60
2019-03-17T05:29:07.851Z,0.50
2019-03-17T05:31:45.514Z,0.78
2019-03-17T05:34:22.939Z,0.70
2019-03-17T05:37:06.269Z,0.60
2019-03-17T05:39:38.427Z,0.95
2019-03-17T05:42:13.046Z,0.70
2019-03-17T05:44:47.739Z,0.80
2019-03-17T05:47:24.947Z,0.80
2019-03-17T05:49:59.715Z,0.85
2019-03-17T05:52:36.907Z,0.70
2019-03-17T05:55:14.508Z,0.90
2019-03-17T05:57:49.237Z,0.60
2019-03-17T06:00:26.459Z,0.75
2019-03-17T06:03:04.148Z,0.80
2019-03-17T06:05:41.433Z,0.80
2019-03-17T06:08:18.683Z,0.62
2019-03-17T06:10:56.166Z,0.90
2019-03-17T06:13:31.088Z,0.75
2019-03-17T06:16:08.460Z,0.60
2019-03-17T06:18:45.640Z,0.78
2019-03-17T06:21:22.798Z,1.10
2019-03-17T06:24:00.328Z,0.93
2019-03-17T06:26:37.618Z,0.82
2019-03-17T06:29:15.055Z,0.90
2019-03-17T06:31:52.488Z,0.93
2019-03-17T06:34:30.283Z,1.00
2019-03-17T06:37:07.559Z,1.12
2019-03-17T06:39:44.820Z,1.15
2019-03-17T06:42:21.935Z,0.90
2019-03-17T06:44:56.843Z,1.25
2019-03-17T06:47:34.072Z,1.20
2019-03-17T06:50:12.687Z,1.60
2019-03-17T06:52:57.876Z,1.30
2019-03-17T06:55:35.254Z,1.92
2019-03-17T06:58:12.909Z,1.37
2019-03-17T07:00:47.567Z,1.27
2019-03-17T07:03:22.262Z,1.35
2019-03-17T07:05:59.639Z,1.35
2019-03-17T07:08:36.797Z,1.30
2019-03-17T07:11:13.045Z,1.27
2019-03-17T07:13:50.394Z,1.37
2019-03-17T07:22:44.140Z,1.30
2019-03-17T07:25:18.929Z,1.45
2019-03-17T07:27:56.407Z,1.40
2019-03-17T07:30:32.280Z,1.60
2019-03-17T07:33:11.489Z,1.40
2019-03-17T07:35:49.449Z,1.65
2019-03-17T07:38:26.666Z,1.20
2019-03-17T07:41:04.039Z,1.40
2019-03-17T07:43:41.260Z,1.40
2019-03-17T07:46:18.497Z,1.37
2019-03-17T07:48:53.489Z,1.30
2019-03-17T07:51:30.656Z,1.32
2019-03-17T07:54:07.991Z,1.50
2019-03-17T07:56:45.618Z,1.60
2019-03-17T07:59:23.076Z,1.70
2019-03-17T08:02:00.500Z,1.47
2019-03-17T08:04:42.384Z,1.52
2019-03-17T08:07:13.818Z,1.70
2019-03-17T08:09:49.558Z,1.80
2019-03-17T08:12:24.289Z,3.12
2019-03-17T08:15:01.619Z,1.77
2019-03-17T08:17:36.576Z,1.70
2019-03-17T08:20:15.767Z,1.47
2019-03-17T08:22:52.986Z,1.75
2019-03-17T08:25:31.668Z,1.60
2019-03-17T08:28:09.065Z,1.40
2019-03-17T08:30:52.952Z,1.75
2019-03-17T08:33:26.825Z,1.50
2019-03-17T08:36:05.363Z,1.60
2019-03-17T08:38:42.621Z,1.70
2019-03-17T08:41:17.457Z,1.25
2019-03-17T08:43:55.345Z,1.50
2019-03-17T08:46:34.809Z,1.35
2019-03-17T08:49:09.538Z,1.40
2019-03-17T08:51:47.599Z,1.40
2019-03-17T08:54:22.366Z,1.10
2019-03-17T08:56:59.628Z,1.20
2019-03-17T08:59:36.731Z,1.20
2019-03-17T09:02:14.060Z,1.22
2019-03-17T09:04:51.286Z,1.30
2019-03-17T09:07:29.722Z,1.35
2019-03-17T09:10:07.162Z,1.10
2019-03-17T09:12:45.553Z,1.00
2019-03-17T09:15:24.137Z,1.00
2019-03-17T09:18:02.657Z,0.80
2019-03-17T09:20:44.679Z,1.07
2019-03-17T09:23:21.902Z,1.00
2019-03-17T09:26:00.575Z,1.00
2019-03-17T09:28:35.349Z,1.10
2019-03-17T09:31:12.561Z,0.98
2019-03-17T09:33:49.851Z,0.95
2019-03-17T09:36:26.999Z,1.00
2019-03-17T09:39:04.158Z,1.00
2019-03-17T09:41:44.442Z,1.20
2019-03-17T09:44:24.404Z,1.30
2019-03-17T09:47:01.595Z,1.30
2019-03-17T09:49:39.008Z,0.98
2019-03-17T09:52:16.264Z,0.90
2019-03-17T09:54:53.791Z,1.02
2019-03-17T09:57:30.963Z,0.70
2019-03-17T10:00:08.897Z,1.10
2019-03-17T10:02:46.281Z,0.85
2019-03-17T10:05:23.742Z,0.85
2019-03-17T10:08:04.075Z,0.80
2019-03-17T10:10:41.741Z,0.82
2019-03-17T10:13:19.487Z,0.85
2019-03-17T10:15:59.061Z,0.90
2019-03-17T10:18:36.656Z,0.90
2019-03-17T10:21:16.104Z,0.98
2019-03-17T10:23:53.872Z,1.00
2019-03-17T10:26:39.827Z,1.47
2019-03-17T10:29:19.160Z,1.30
2019-03-17T10:32:07.563Z,1.20
2019-03-17T10:34:46.300Z,1.57
2019-03-17T10:37:25.829Z,1.37
2019-03-17T10:40:06.798Z,1.20
2019-03-17T10:42:46.396Z,1.10
2019-03-17T10:45:25.880Z,1.20
2019-03-17T10:48:00.905Z,1.10
2019-03-17T10:50:49.128Z,1.25
2019-03-17T10:53:19.228Z,1.40
2019-03-17T10:55:56.909Z,1.50
2019-03-17T10:58:34.516Z,1.37
2019-03-17T11:01:12.986Z,1.12
2019-03-17T11:03:50.659Z,1.10
2019-03-17T11:06:28.333Z,1.10
2019-03-17T11:09:05.960Z,1.02
2019-03-17T11:11:43.454Z,1.10
2019-03-17T11:14:21.310Z,0.98
2019-03-17T11:16:58.800Z,1.10
2019-03-17T11:19:36.145Z,1.10
2019-03-17T11:22:13.563Z,1.30
2019-03-17T11:24:53.207Z,1.10
2019-03-17T11:27:32.595Z,1.10
2019-03-17T11:30:10.802Z,0.90
2019-03-17T11:32:49.933Z,1.17
2019-03-17T11:35:27.286Z,1.00
2019-03-17T11:38:04.751Z,0.82
2019-03-17T11:40:44.141Z,0.80
2019-03-17T11:43:21.527Z,1.00
2019-03-17T11:45:58.839Z,1.20
2019-03-17T11:48:37.352Z,1.00
2019-03-17T11:51:14.750Z,1.10
2019-03-17T11:53:52.316Z,1.12
2019-03-17T11:56:29.935Z,0.95
2019-03-17T11:59:07.871Z,1.00
2019-03-17T12:01:45.463Z,0.98
2019-03-17T12:04:22.929Z,0.90
2019-03-17T12:07:00.282Z,1.10
2019-03-17T12:09:49.306Z,0.90
2019-03-17T12:12:16.091Z,0.90
2019-03-17T12:14:53.543Z,1.12
2019-03-17T12:17:30.988Z,0.88
2019-03-17T12:20:08.633Z,1.00
2019-03-17T12:22:45.902Z,0.90
2019-03-17T12:25:23.200Z,0.95
2019-03-17T12:28:01.028Z,0.90
2019-03-17T12:30:39.417Z,0.98
2019-03-17T12:33:16.610Z,0.90
2019-03-17T12:35:53.708Z,1.05
2019-03-17T12:38:30.884Z,1.10
2019-03-17T12:41:07.998Z,1.10
2019-03-17T12:43:45.204Z,1.00
2019-03-17T12:46:22.496Z,1.20
2019-03-17T12:48:59.742Z,1.40
2019-03-17T12:51:37.007Z,1.27
2019-03-17T12:54:14.178Z,1.40
2019-03-17T12:56:51.465Z,1.35
2019-03-17T12:59:28.634Z,1.30
2019-03-17T13:02:07.694Z,1.37
2019-03-17T13:04:45.092Z,1.47
2019-03-17T13:07:22.896Z,1.47
2019-03-17T13:10:00.694Z,1.40
2019-03-17T13:12:38.062Z,1.40
2019-03-17T13:15:15.831Z,1.40
2019-03-17T13:17:50.418Z,1.20
2019-03-17T13:20:29.595Z,1.47
2019-03-17T13:23:05.748Z,1.40
2019-03-17T13:25:42.857Z,1.32
2019-03-17T13:28:17.491Z,1.15
2019-03-17T13:30:54.612Z,1.42
2019-03-17T13:33:31.739Z,1.42
2019-03-17T13:36:09.055Z,1.02
2019-03-17T13:38:46.241Z,1.17
2019-03-17T13:41:23.265Z,1.02
2019-03-17T13:44:00.453Z,1.00
2019-03-17T13:46:37.499Z,1.10
2019-03-17T13:49:14.483Z,1.27
2019-03-17T13:51:51.510Z,1.15
2019-03-17T13:54:28.509Z,1.22
2019-03-17T13:57:05.694Z,0.95
2019-03-17T13:59:42.671Z,0.93
2019-03-17T14:02:19.796Z,1.12
2019-03-17T14:04:56.890Z,1.17
2019-03-17T14:07:33.942Z,1.12
2019-03-17T14:10:14.079Z,1.07
2019-03-17T14:12:50.706Z,0.90
2019-03-17T14:15:27.780Z,0.98
2019-03-17T14:18:04.953Z,1.10
2019-03-17T14:20:42.070Z,1.00
2019-03-17T14:23:19.192Z,1.15
2019-03-17T14:25:56.280Z,1.07
2019-03-17T14:28:33.958Z,1.20
2019-03-17T14:31:10.903Z,1.30
2019-03-17T14:33:47.962Z,1.30
2019-03-17T14:36:25.017Z,1.30
2019-03-17T14:39:02.108Z,1.10
2019-03-17T14:41:39.086Z,1.35
2019-03-17T14:44:16.236Z,1.12
2019-03-17T14:46:53.390Z,1.30
2019-03-17T14:49:30.604Z,1.47
2019-03-17T14:52:07.986Z,1.20
2019-03-17T14:54:45.186Z,1.20
2019-03-17T14:57:22.324Z,1.42
2019-03-17T14:59:59.454Z,1.02
2019-03-17T15:02:38.029Z,1.10
2019-03-17T15:05:15.916Z,1.40
2019-03-17T15:07:53.055Z,1.20
2019-03-17T15:10:30.331Z,1.20
2019-03-17T15:13:07.415Z,1.40
2019-03-17T15:15:44.584Z,1.10
2019-03-17T15:18:21.786Z,1.17
2019-03-17T15:20:58.884Z,1.22
2019-03-17T15:23:36.006Z,1.10
2019-03-17T15:26:13.235Z,1.00
2019-03-17T15:28:50.349Z,0.95
2019-03-17T15:31:25.019Z,1.12
2019-03-17T15:34:02.048Z,1.20
2019-03-17T15:36:40.974Z,1.10
2019-03-17T15:39:18.139Z,1.00
2019-03-17T15:41:55.237Z,1.00
2019-03-17T15:44:33.380Z,1.20
2019-03-17T15:47:10.414Z,1.10
2019-03-17T15:49:48.866Z,1.27
2019-03-17T15:52:25.951Z,1.30
2019-03-17T15:55:03.024Z,1.10
2019-03-17T15:57:40.156Z,1.12
2019-03-17T16:00:25.258Z,1.30
2019-03-17T16:02:58.553Z,1.17
2019-03-17T16:05:35.611Z,1.10
2019-03-17T16:08:12.783Z,1.20
2019-03-17T16:10:49.927Z,1.30
2019-03-17T16:13:27.011Z,1.30
2019-03-17T16:16:04.107Z,1.40
2019-03-17T16:18:41.070Z,1.52
2019-03-17T16:21:18.372Z,1.40
2019-03-17T16:23:55.574Z,1.20
2019-03-17T16:26:30.242Z,1.37
2019-03-17T16:29:07.811Z,1.30
2019-03-17T16:31:44.906Z,1.20
2019-03-17T16:34:25.628Z,1.30
2019-03-17T16:37:02.312Z,1.30
2019-03-17T16:39:39.492Z,1.30
2019-03-17T16:42:16.575Z,1.50
2019-03-17T16:44:51.274Z,1.10
2019-03-17T16:47:28.394Z,1.32
2019-03-17T16:50:03.208Z,1.00
2019-03-17T16:52:40.341Z,1.07
2019-03-17T16:55:17.676Z,0.95
2019-03-17T16:57:52.311Z,1.20
2019-03-17T17:00:31.504Z,0.95
2019-03-17T17:03:08.629Z,1.00
2019-03-17T17:05:45.711Z,1.05
2019-03-17T17:08:20.335Z,1.00
2019-03-17T17:10:54.903Z,1.00
2019-03-17T17:13:32.052Z,0.78
2019-03-17T17:16:09.368Z,1.05
2019-03-17T17:18:44.081Z,0.80
2019-03-17T17:21:21.379Z,0.90
2019-03-17T17:23:59.738Z,1.00
2019-03-17T17:26:37.629Z,0.80
2019-03-17T17:29:10.098Z,0.80
2019-03-17T17:31:47.226Z,0.90
2019-03-17T17:34:24.412Z,0.62
2019-03-17T17:37:01.662Z,0.90
2019-03-17T17:39:38.852Z,1.00
2019-03-17T17:42:16.108Z,0.80
2019-03-17T17:44:52.906Z,0.80
2019-03-17T17:47:30.086Z,0.90
2019-03-17T17:50:07.160Z,0.70
2019-03-17T17:52:41.742Z,0.68
2019-03-17T17:55:18.846Z,0.90
2019-03-17T17:57:55.973Z,0.70
2019-03-17T18:06:28.619Z,0.70
2019-03-17T18:09:03.247Z,0.90
2019-03-17T18:11:37.881Z,0.70
2019-03-17T18:14:15.301Z,0.80
2019-03-17T18:16:49.935Z,0.70
2019-03-17T18:19:26.938Z,0.90
2019-03-17T18:22:04.055Z,0.70
2019-03-17T18:24:41.084Z,0.80
2019-03-17T18:27:18.333Z,0.80
2019-03-17T18:29:55.511Z,0.75
2019-03-17T18:32:32.686Z,0.82
2019-03-17T18:35:10.175Z,0.90
2019-03-17T18:37:47.678Z,0.60
2019-03-17T18:40:24.713Z,0.70
2019-03-17T18:43:02.047Z,0.93
2019-03-17T18:45:39.291Z,0.80
2019-03-17T18:48:16.610Z,0.90
2019-03-17T18:50:53.615Z,0.60
2019-03-17T18:53:30.622Z,0.90
2019-03-17T18:56:05.139Z,0.60
2019-03-17T18:58:42.402Z,0.70
2019-03-17T19:03:45.143Z,0.70
2019-03-17T19:06:22.200Z,0.80
2019-03-17T19:08:59.248Z,0.90
2019-03-17T19:11:38.439Z,0.60
2019-03-17T19:14:13.169Z,0.62
2019-03-17T19:16:50.123Z,0.90
2019-03-17T19:19:24.844Z,0.98
2019-03-17T19:22:01.850Z,0.78
2019-03-17T19:24:38.963Z,0.72
2019-03-17T19:27:16.171Z,0.80
2019-03-17T19:29:53.355Z,0.80
2019-03-17T19:32:30.656Z,0.90
2019-03-17T19:35:08.101Z,0.70
2019-03-17T19:37:45.238Z,0.80
2019-03-17T19:40:22.779Z,1.00
2019-03-17T19:42:59.929Z,0.90
2019-03-17T19:45:34.602Z,0.90
2019-03-17T19:48:12.006Z,0.80
2019-03-17T19:50:49.279Z,0.78
2019-03-17T19:53:23.875Z,2.50
2019-03-17T19:56:00.945Z,0.80
2019-03-17T19:58:40.492Z,0.70
2019-03-17T20:01:16.283Z,0.90
2019-03-17T20:03:53.399Z,1.07
2019-03-17T20:06:30.658Z,1.00
2019-03-17T20:09:08.414Z,1.15
2019-03-17T20:11:44.804Z,1.20
2019-03-17T20:14:32.646Z,1.17
2019-03-17T20:17:09.799Z,1.50
2019-03-17T20:19:51.093Z,1.67
2019-03-17T20:22:28.336Z,1.30
2019-03-17T20:25:02.999Z,1.27
2019-03-17T20:27:40.181Z,1.40
2019-03-17T20:30:17.985Z,1.25
2019-03-17T20:32:55.149Z,1.30
2019-03-17T20:35:32.427Z,1.35
2019-03-17T20:38:09.531Z,1.70
2019-03-17T20:40:46.668Z,1.57
2019-03-17T20:43:34.198Z,1.55
2019-03-17T20:45:59.670Z,2.10
2019-03-17T20:48:37.824Z,2.33
2019-03-17T20:51:12.521Z,2.20
2019-03-17T20:53:50.647Z,2.50
2019-03-17T20:56:27.784Z,2.22
2019-03-17T20:59:04.923Z,2.05
2019-03-17T21:01:39.462Z,1.77
2019-03-17T21:04:16.756Z,1.62
2019-03-17T21:06:54.076Z,1.52
2019-03-17T21:09:31.111Z,1.27
2019-03-17T21:12:08.367Z,1.50
2019-03-17T21:14:43.030Z,1.60
2019-03-17T21:17:20.103Z,1.42
2019-03-17T21:19:57.179Z,1.50
2019-03-17T21:22:34.395Z,1.95
2019-03-17T21:25:09.277Z,2.42
2019-03-17T21:27:46.490Z,2.00
2019-03-17T21:30:22.426Z,1.72
2019-03-17T21:32:59.507Z,1.90
2019-03-17T21:35:36.849Z,1.60
2019-03-17T21:38:14.171Z,1.30
2019-03-17T21:41:06.203Z,1.45
2019-03-17T21:43:29.996Z,1.75
2019-03-17T21:46:04.701Z,1.60
2019-03-17T21:48:39.445Z,1.50
2019-03-17T21:51:16.771Z,1.62
2019-03-17T21:53:54.004Z,1.20
2019-03-17T21:56:31.369Z,1.40
2019-03-17T21:59:08.623Z,1.12
2019-03-17T22:01:45.990Z,2.00
2019-03-17T22:04:23.220Z,1.40
2019-03-17T22:07:00.790Z,1.32
2019-03-17T22:09:38.126Z,1.10
2019-03-17T22:12:15.363Z,0.90
2019-03-17T22:14:52.426Z,1.50
2019-03-17T22:17:29.630Z,0.90
2019-03-17T22:20:06.909Z,1.37
2019-03-17T22:22:44.175Z,2.12
2019-03-17T22:25:21.593Z,2.40
2019-03-17T22:28:08.160Z,1.17
2019-03-17T22:30:40.585Z,1.70
2019-03-17T22:33:17.723Z,1.30
2019-03-17T22:35:54.797Z,1.15
2019-03-17T22:38:31.894Z,1.00
2019-03-17T22:41:09.064Z,1.27
2019-03-17T22:43:46.098Z,1.27
2019-03-17T22:46:25.725Z,2.85
2019-03-17T22:49:00.416Z,1.35
2019-03-17T22:51:37.612Z,0.88
2019-03-17T22:54:14.843Z,1.10
2019-03-17T22:56:52.089Z,1.30
2019-03-17T22:59:29.928Z,1.20
2019-03-17T23:02:07.233Z,1.20
2019-03-17T23:04:44.630Z,1.50
2019-03-17T23:07:22.040Z,1.17
2019-03-17T23:10:01.828Z,1.20
2019-03-17T23:12:37.617Z,1.10
2019-03-17T23:15:14.955Z,1.20
2019-03-17T23:17:52.128Z,1.05
2019-03-17T23:20:29.522Z,1.05
2019-03-17T23:23:06.726Z,1.20
2019-03-17T23:25:43.863Z,1.90
2019-03-17T23:28:20.912Z,1.30
2019-03-17T23:31:03.033Z,1.00
2019-03-17T23:33:45.117Z,1.10
2019-03-17T23:36:20.800Z,0.93
2019-03-17T23:38:57.932Z,1.20
2019-03-17T23:41:35.033Z,1.10
2019-03-17T23:44:12.218Z,1.20
2019-03-17T23:46:46.877Z,1.10
2019-03-17T23:49:21.966Z,1.00
2019-03-17T23:51:56.978Z,1.25
2019-03-17T23:54:35.113Z,1.20
2019-03-17T23:57:12.884Z,1.22
2019-03-17T23:59:50.053Z,1.20
